| time (UTC) | temp C | wind direction | speed KPH | gust KPH | rain 1hr cm | rain 24hr cm | rain mn cm | humidity % | barometer mb |
| 20260906193000 | 21 | 24 | 0.0 | 4.8 | 0.15 | 0.18 | 0.18 | 94 | 1013.6 |
| 20260906190000 | 21 | 55 | 1.6 | 4.8 | 0.13 | 0.13 | 0.13 | 92 | 1015.9 |
| 20260906184500 | 22 | 355 | 1.6 | 6.4 | 0.10 | 0.10 | 0.10 | 90 | 1016.6 |
| 20260906183002 | 22 | 263 | 4.8 | 14.5 | 0.03 | 0.03 | 0.03 | 88 | 1016.8 |
| 20260906181500 | 22 | 226 | 6.4 | 12.9 | 0.00 | 0.00 | 0.00 | 84 | 1017.0 |
| 20260906174503 | 22 | 245 | 8.0 | 19.3 | 0.00 | 0.00 | 0.00 | 84 | 1016.1 |
| 20260906170003 | 22 | 345 | 6.4 | 17.7 | 0.00 | 0.00 | 0.00 | 90 | 1015.8 |
| 20260906164502 | 23 | 326 | 9.7 | 19.3 | 0.00 | 0.00 | 0.00 | 87 | 1016.4 |
| 20260906163001 | 23 | 302 | 16.1 | 35.4 | 0.00 | 0.00 | 0.00 | 83 | 1016.1 |
| 20260906161502 | 23 | 297 | 8.0 | 24.1 | 0.00 | 0.00 | 0.00 | 89 | 1016.6 |
| 20260906154500 | 23 | 188 | 6.4 | 16.1 | 0.00 | 0.00 | 0.00 | 92 | 1015.5 |
| 20260906153001 | 23 | 200 | 1.6 | 6.4 | 0.00 | 0.00 | 0.00 | 93 | 1015.2 |
| 20260906151500 | 23 | 156 | 1.6 | 8.0 | 0.00 | 0.00 | 0.00 | 94 | 1014.6 |
| 20260906150003 | 23 | 84 | 0.0 | 3.2 | 0.00 | 0.00 | 0.00 | 95 | 1013.9 |
| 20260906144501 | 23 | 88 | 0.0 | 3.2 | 0.00 | 0.10 | 0.00 | 95 | 1013.8 |
| 20260906143001 | 23 | 137 | 0.0 | 1.6 | 0.00 | 0.10 | 0.00 | 95 | 1014.1 |
| 20260906140000 | 23 | 166 | 1.6 | 4.8 | 0.00 | 0.36 | 0.00 | 95 | 1014.2 |
| 20260906134500 | 23 | 202 | 4.8 | 9.7 | 0.00 | 0.36 | 0.00 | 95 | 1014.2 |
| 20260906132959 | 23 | 157 | 0.0 | 4.8 | 0.00 | 0.36 | 0.00 | 96 | 1014.6 |
| 20260906131500 | 23 | 157 | 1.6 | 8.0 | 0.00 | 0.36 | 0.00 | 96 | 1014.4 |
| 20260906130002 | 23 | 225 | 1.6 | 8.0 | 0.00 | 0.46 | 0.00 | 96 | 1014.4 |
| 20260906124501 | 23 | 28 | 0.0 | 1.6 | 0.00 | 0.46 | 0.00 | 96 | 1013.8 |
| 20260906121501 | 22 | 58 | 0.0 | 1.6 | 0.00 | 0.46 | 0.00 | 96 | 1013.2 |
| 20260906115959 | 22 | 58 | 0.0 | 1.6 | 0.00 | 0.51 | 0.00 | 96 | 1013.3 |
| 20260906113000 | 22 | 58 | 0.0 | 1.6 | 0.00 | 0.51 | 0.00 | 96 | 1013.3 |
| 20260906111500 | 22 | 58 | 0.0 | 0.0 | 0.00 | 0.51 | 0.00 | 96 | 1013.1 |
| 20260906110003 | 22 | 58 | 0.0 | 0.0 | 0.00 | 0.51 | 0.00 | 96 | 1013.1 |
| 20260906104501 | 22 | 58 | 0.0 | 0.0 | 0.00 | 0.84 | 0.00 | 96 | 1012.8 |
| 20260906103001 | 22 | 58 | 0.0 | 1.6 | 0.00 | 0.84 | 0.00 | 95 | 1012.8 |
| 20260906101501 | 22 | 58 | 0.0 | 1.6 | 0.00 | 0.84 | 0.00 | 95 | 1013.1 |
| 20260906100001 | 23 | 58 | 0.0 | 1.6 | 0.00 | 0.84 | 0.00 | 94 | 1012.9 |
| 20260906094501 | 23 | 58 | 0.0 | 1.6 | 0.00 | 0.84 | 0.00 | 94 | 1012.9 |
| 20260906092959 | 23 | 58 | 0.0 | 0.0 | 0.00 | 0.84 | 0.00 | 94 | 1012.8 |
| 20260906091501 | 23 | 58 | 0.0 | 1.6 | 0.00 | 0.84 | 0.00 | 94 | 1012.8 |
| 20260906090002 | 23 | 58 | 0.0 | 1.6 | 0.00 | 0.84 | 0.00 | 94 | 1013.0 |
| 20260906084500 | 23 | 57 | 0.0 | 1.6 | 0.00 | 0.84 | 0.00 | 94 | 1013.3 |
| 20260906083000 | 23 | 57 | 0.0 | 0.0 | 0.00 | 0.84 | 0.00 | 93 | 1013.5 |
| 20260906081500 | 23 | 57 | 0.0 | 0.0 | 0.00 | 0.84 | 0.00 | 93 | 1013.6 |
| 20260906080000 | 23 | 57 | 0.0 | 0.0 | 0.00 | 0.84 | 0.00 | 93 | 1013.5 |
| 20260906074459 | 23 | 57 | 0.0 | 0.0 | 0.00 | 0.84 | 0.00 | 92 | 1013.2 |
| 20260906073000 | 23 | 57 | 0.0 | 0.0 | 0.00 | 0.84 | 0.00 | 92 | 1013.2 |
| 20260906071501 | 23 | 57 | 0.0 | 1.6 | 0.00 | 0.84 | 0.00 | 92 | 1012.8 |
| 20260906070004 | 23 | 94 | 0.0 | 1.6 | 0.00 | 0.84 | 0.00 | 92 | 1013.3 |
| 20260906064500 | 23 | 76 | 0.0 | 0.0 | 0.00 | 0.84 | 0.00 | 91 | 1013.5 |
| 20260906063001 | 23 | 76 | 0.0 | 1.6 | 0.00 | 0.84 | 0.00 | 90 | 1013.2 |
| 20260906060001 | 23 | 95 | 0.0 | 1.6 | 0.00 | 0.84 | 0.00 | 90 | 1013.3 |
| 20260906054501 | 23 | 95 | 0.0 | 0.0 | 0.00 | 0.84 | 0.00 | 89 | 1013.3 |
| 20260906053001 | 23 | 95 | 0.0 | 0.0 | 0.00 | 0.84 | 0.00 | 89 | 1013.3 |
| 20260906051501 | 24 | 95 | 0.0 | 0.0 | 0.00 | 0.84 | 0.00 | 88 | 1013.3 |
| 20260906050001 | 24 | 95 | 0.0 | 1.6 | 0.00 | 0.84 | 0.84 | 87 | 1013.4 |
| 20260906044501 | 24 | 95 | 0.0 | 1.6 | 0.00 | 0.84 | 0.84 | 86 | 1013.2 |
| 20260906043001 | 25 | 95 | 0.0 | 3.2 | 0.00 | 0.84 | 0.84 | 86 | 1013.2 |
| 20260906041502 | 25 | 96 | 0.0 | 1.6 | 0.00 | 0.84 | 0.84 | 85 | 1013.3 |
| 20260906040003 | 25 | 96 | 0.0 | 1.6 | 0.00 | 0.84 | 0.84 | 83 | 1013.3 |
| 20260906034501 | 25 | 96 | 0.0 | 1.6 | 0.00 | 0.84 | 0.84 | 82 | 1013.5 |
| 20260906033001 | 26 | 160 | 0.0 | 0.0 | 0.00 | 0.84 | 0.84 | 80 | 1013.7 |
| 20260906031501 | 26 | 160 | 0.0 | 0.0 | 0.00 | 0.84 | 0.84 | 78 | 1013.7 |
| 20260906030002 | 26 | 160 | 0.0 | 0.0 | 0.00 | 0.84 | 0.84 | 77 | 1013.5 |
| 20260906023002 | 27 | 160 | 0.0 | 1.6 | 0.00 | 0.84 | 0.84 | 74 | 1013.3 |
| 20260906021501 | 27 | 159 | 0.0 | 4.8 | 0.00 | 0.84 | 0.84 | 73 | 1012.8 |
| 20260906020005 | 27 | 140 | 1.6 | 9.7 | 0.00 | 0.84 | 0.84 | 73 | 1012.4 |
| 20260906014502 | 28 | 135 | 0.0 | 1.6 | 0.00 | 0.84 | 0.84 | 72 | 1012.1 |
| 20260906013001 | 28 | 125 | 0.0 | 6.4 | 0.00 | 0.84 | 0.84 | 71 | 1012.1 |
| 20260906011502 | 28 | 144 | 0.0 | 4.8 | 0.00 | 0.84 | 0.84 | 70 | 1012.0 |
| 20260906010004 | 29 | 175 | 1.6 | 6.4 | 0.00 | 0.84 | 0.84 | 69 | 1012.0 |
| 20260906004501 | 30 | 136 | 1.6 | 9.7 | 0.00 | 0.84 | 0.84 | 68 | 1012.1 |
| 20260906003002 | 30 | 148 | 0.0 | 4.8 | 0.00 | 0.84 | 0.84 | 67 | 1012.1 |
| 20260906000001 | 31 | 160 | 4.8 | 12.9 | 0.00 | 0.84 | 0.84 | 63 | 1011.7 |
| 20260905234501 | 31 | 138 | 6.4 | 16.1 | 0.00 | 0.84 | 0.84 | 60 | 1011.4 |
| 20260905233001 | 32 | 130 | 4.8 | 17.7 | 0.00 | 0.84 | 0.84 | 59 | 1011.5 |
| 20260905230004 | 33 | 161 | 4.8 | 14.5 | 0.00 | 0.84 | 0.84 | 55 | 1011.6 |
| 20260905224502 | 33 | 138 | 8.0 | 22.5 | 0.00 | 0.84 | 0.84 | 53 | 1011.5 |
| 20260905223001 | 33 | 156 | 4.8 | 14.5 | 0.00 | 0.84 | 0.84 | 54 | 1011.6 |
| 20260905221501 | 33 | 167 | 9.7 | 24.1 | 0.00 | 0.84 | 0.84 | 54 | 1011.4 |
| 20260905220003 | 33 | 115 | 9.7 | 24.1 | 0.00 | 0.84 | 0.84 | 55 | 1011.3 |
| 20260905214502 | 32 | 146 | 9.7 | 22.5 | 0.00 | 0.84 | 0.84 | 54 | 1011.1 |
| 20260905213001 | 33 | 161 | 8.0 | 20.9 | 0.00 | 0.84 | 0.84 | 54 | 1011.1 |
| 20260905210002 | 33 | 156 | 4.8 | 19.3 | 0.00 | 0.84 | 0.84 | 52 | 1010.9 |
| 20260905204502 | 33 | 111 | 8.0 | 27.4 | 0.00 | 0.84 | 0.84 | 54 | 1010.8 |
| 20260905200002 | 32 | 180 | 14.5 | 43.5 | 0.00 | 0.84 | 0.84 | 57 | 1010.4 |
| 20260905194501 | 31 | 213 | 11.3 | 19.3 | 0.00 | 0.84 | 0.84 | 62 | 1010.2 |